Time;durP1;ratioP1;P1;durP2;ratioP2;P2;SDS_P1;SDS_P2;PMS_P1;PMS_P2;Temp;Humidity;BMP_temperature;BMP_pressure;BME280_temperature;BME280_humidity;BME280_pressure;Samples;Min_cycle;Max_cycle;Signal;HPM_P1;HPM_P2
2022/06/29 00:00:38;161040.00;0.54;278.83;65843.00;0.22;114.58;;;;;22.00;1.00;;;;;;2271768;61;1094;-85
2022/06/29 00:03:07;665444.00;2.22;1147.36;304398.00;1.01;525.48;;;;;22.20;1.00;;;;;;2271759;61;1136;-84
2022/06/29 00:05:34;175767.00;0.59;304.20;79306.00;0.26;137.84;;;;;22.20;1.00;;;;;;2271923;61;1105;-85
2022/06/29 00:08:01;244980.00;0.82;423.32;63930.00;0.21;111.27;;;;;22.30;1.00;;;;;;2271882;61;1289;-86
2022/06/29 00:10:27;167521.00;0.56;290.00;73658.00;0.25;128.08;;;;;22.20;1.00;;;;;;2271880;61;1919;-85
2022/06/29 00:12:55;117028696.00;390.10;64923504.00;70086.00;0.23;121.91;;;;;22.50;1.00;;;;;;2271909;61;1972;-85
2022/06/29 00:15:22;169711.00;0.57;293.77;68276.00;0.23;118.78;;;;;22.70;1.00;;;;;;2271801;61;1272;-85
2022/06/29 00:17:49;173861.00;0.58;300.92;64273.00;0.21;111.86;;;;;22.80;1.00;;;;;;2271946;61;948;-85
2022/06/29 00:20:18;168402.00;0.56;291.51;72399.00;0.24;125.91;;;;;22.60;1.00;;;;;;2271986;61;1115;-85
2022/06/29 00:22:46;167952.00;0.56;290.74;76182.00;0.25;132.44;;;;;22.50;1.00;;;;;;2271958;61;1118;-85
2022/06/29 00:25:14;167132.00;0.56;289.33;68277.00;0.23;118.78;;;;;22.50;1.00;;;;;;2271820;61;2020;-85
2022/06/29 00:27:42;282533.00;0.94;487.89;113580.00;0.38;197.01;;;;;22.50;1.00;;;;;;2272228;61;1078;-84
2022/06/29 00:30:11;252602.00;0.84;436.43;71253.00;0.24;123.93;;;;;22.60;1.00;;;;;;2272151;61;1920;-85
2022/06/29 00:32:38;165457.00;0.55;286.44;70958.00;0.24;123.42;;;;;22.60;1.00;;;;;;2272073;61;2249;-85
2022/06/29 00:35:06;176387.00;0.59;305.27;76773.00;0.26;133.46;;;;;22.50;1.00;;;;;;2271606;61;1171;-85
2022/06/29 00:37:35;266873.00;0.89;460.97;98648.00;0.33;171.24;;;;;22.50;1.00;;;;;;2271709;61;1139;-86
2022/06/29 00:40:03;166750.00;0.56;288.67;67042.00;0.22;116.65;;;;;22.30;1.00;;;;;;2271518;61;1317;-85
2022/06/29 00:42:30;162999.00;0.54;282.21;64818.00;0.22;112.80;;;;;22.30;1.00;;;;;;2271562;61;1272;-86
2022/06/29 00:44:57;173468.00;0.58;300.24;72586.00;0.24;126.23;;;;;22.20;1.00;;;;;;2271840;61;1159;-86
2022/06/29 00:47:24;182966.00;0.61;316.60;73635.00;0.25;128.04;;;;;22.10;1.00;;;;;;2271700;61;984;-86
2022/06/29 00:49:51;173427.00;0.58;300.17;65210.00;0.22;113.48;;;;;22.20;1.00;;;;;;2271575;61;2008;-86
2022/06/29 00:52:24;164316.00;0.55;284.48;64598.00;0.22;112.42;;;;;22.20;1.00;;;;;;2271825;61;1267;-86
2022/06/29 00:54:55;199703.00;0.67;345.41;71160.00;0.24;123.76;;;;;22.20;1.00;;;;;;2272441;61;1053;-86
2022/06/29 00:57:25;168754.00;0.56;292.12;68584.00;0.23;119.31;;;;;22.30;1.00;;;;;;2272396;61;1204;-87
2022/06/29 00:59:54;162963.00;0.54;282.14;63683.00;0.21;110.84;;;;;22.60;1.00;;;;;;2272555;61;1318;-86
2022/06/29 01:02:23;167029.00;0.56;289.15;63828.00;0.21;111.09;;;;;22.70;1.00;;;;;;2272728;61;1026;-84
2022/06/29 01:04:51;257692.00;0.86;445.18;63385.00;0.21;110.33;;;;;22.60;1.00;;;;;;2272800;61;1114;-84
2022/06/29 01:07:20;199209.00;0.66;344.56;67943.00;0.23;118.21;;;;;22.60;1.00;;;;;;2272794;61;1067;-86
2022/06/29 01:09:47;277713.00;0.93;479.61;85121.00;0.28;147.88;;;;;22.70;1.00;;;;;;2272786;61;1996;-86
2022/06/29 01:12:16;163424.00;0.54;282.94;66200.00;0.22;115.19;;;;;22.60;1.00;;;;;;2272351;61;1056;-86
2022/06/29 01:14:43;170358.00;0.57;294.88;70139.00;0.23;122.00;;;;;22.70;1.00;;;;;;2272168;61;1176;-86
2022/06/29 01:17:11;235368.00;0.78;406.78;70711.00;0.24;122.99;;;;;22.90;1.00;;;;;;2272269;61;1239;-85
2022/06/29 01:19:38;185355.00;0.62;320.71;74245.00;0.25;129.10;;;;;22.90;1.00;;;;;;2271996;61;1619;-86
2022/06/29 01:22:10;193551.00;0.65;334.82;67753.00;0.23;117.88;;;;;22.70;1.00;;;;;;2272181;61;1088;-86
2022/06/29 01:24:38;294952.00;0.98;509.24;67620.00;0.23;117.65;;;;;22.60;1.00;;;;;;2272300;61;1131;-86
2022/06/29 01:27:05;342881.00;1.14;591.63;126072.00;0.42;218.56;;;;;22.60;1.00;;;;;;2272150;61;1163;-87
2022/06/29 01:29:32;565736.00;1.89;975.09;132867.00;0.44;230.27;;;;;22.50;1.00;;;;;;2271961;61;2016;-87
2022/06/29 01:32:00;694263.00;2.31;1197.29;197752.00;0.66;342.05;;;;;22.30;1.00;;;;;;2272531;61;1042;-85
2022/06/29 01:34:29;166059.00;0.55;287.48;67977.00;0.23;118.26;;;;;22.40;1.00;;;;;;2272414;61;1107;-86
2022/06/29 01:36:56;285930.00;0.95;493.73;70567.00;0.24;122.74;;;;;22.20;1.00;;;;;;2272279;61;1110;-85
2022/06/29 01:39:24;397188.00;1.32;684.97;81056.00;0.27;140.86;;;;;22.20;1.00;;;;;;2272476;61;1282;-85
2022/06/29 01:41:51;119116968.00;397.06;68464648.00;71277.00;0.24;123.97;;;;;22.40;1.00;;;;;;2272415;61;1073;-86
2022/06/29 01:44:18;410732.00;1.37;708.26;120436.00;0.40;208.83;;;;;22.40;1.00;;;;;;2271885;61;1117;-86
2022/06/29 01:46:45;326281.00;1.09;563.09;93980.00;0.31;163.18;;;;;22.20;1.00;;;;;;2272148;61;1155;-86
2022/06/29 01:49:12;374024.00;1.25;645.15;69587.00;0.23;121.05;;;;;22.40;1.00;;;;;;2272198;61;1272;-86
2022/06/29 01:51:39;363151.00;1.21;626.46;72129.00;0.24;125.44;;;;;22.40;1.00;;;;;;2272183;61;2009;-86
2022/06/29 01:54:06;274861.00;0.92;474.70;70693.00;0.24;122.96;;;;;22.50;1.00;;;;;;2271819;61;1061;-84
2022/06/29 01:56:35;371227.00;1.24;640.35;68784.00;0.23;119.66;;;;;22.50;1.00;;;;;;2272298;61;1083;-86
2022/06/29 01:59:02;118873520.00;396.25;68045352.00;72852.00;0.24;126.69;;;;;22.30;1.00;;;;;;2272280;61;1283;-85
2022/06/29 02:01:29;316826.00;1.06;546.84;74787.00;0.25;130.03;;;;;22.40;1.00;;;;;;2272206;61;2144;-85
2022/06/29 02:03:56;374723.00;1.25;646.35;72559.00;0.24;126.18;;;;;22.30;1.00;;;;;;2272036;61;1082;-85
2022/06/29 02:06:24;316758.00;1.06;546.73;70928.00;0.24;123.36;;;;;22.40;1.00;;;;;;2272175;61;1090;-85
2022/06/29 02:08:52;375557.00;1.25;647.79;71502.00;0.24;124.36;;;;;22.50;1.00;;;;;;2272315;61;1286;-86
2022/06/29 02:11:19;473746.00;1.58;816.64;114350.00;0.38;198.34;;;;;22.60;1.00;;;;;;2272157;61;2003;-85
2022/06/29 02:13:48;420022.00;1.40;724.23;63467.00;0.21;110.47;;;;;22.60;1.00;;;;;;2272200;61;1225;-86
2022/06/29 02:16:15;347185.00;1.16;599.02;69395.00;0.23;120.71;;;;;22.50;1.00;;;;;;2272228;61;1123;-85
2022/06/29 02:18:42;381423.00;1.27;657.87;68567.00;0.23;119.28;;;;;22.60;1.00;;;;;;2272374;61;2069;-86
2022/06/29 02:21:09;381155.00;1.27;657.41;92810.00;0.31;161.16;;;;;22.30;1.00;;;;;;2272143;61;1134;-86
2022/06/29 02:23:35;617744.00;2.06;1064.87;118580.00;0.40;205.63;;;;;22.10;1.00;;;;;;2272387;61;975;-86
2022/06/29 02:26:02;387530.00;1.29;668.37;95107.00;0.32;165.13;;;;;21.40;1.00;;;;;;2272353;61;1182;-86
2022/06/29 02:28:29;443681.00;1.48;764.91;69299.00;0.23;120.55;;;;;21.00;1.10;;;;;;2272269;61;1280;-85
2022/06/29 02:36:26;535657.00;1.79;923.24;134153.00;0.45;232.49;;;;;21.30;1.40;;;;;;2272143;61;688;-85
2022/06/29 02:38:53;338293.00;1.13;583.74;67383.00;0.22;117.24;;;;;21.60;1.00;;;;;;2272253;61;1454;-86
2022/06/29 02:41:20;415307.00;1.38;716.12;76266.00;0.25;132.59;;;;;21.80;1.00;;;;;;2272318;61;1068;-86
2022/06/29 02:43:47;374464.00;1.25;645.91;65130.00;0.22;113.34;;;;;21.90;1.00;;;;;;2272148;61;1057;-86
2022/06/29 02:46:15;117432272.00;391.44;65598104.00;97060.00;0.32;168.50;;;;;21.80;1.00;;;;;;2272398;61;1114;-85
2022/06/29 02:48:42;504632.00;1.68;869.80;67601.00;0.23;117.61;;;;;21.80;1.00;;;;;;2272238;61;1317;-87
2022/06/29 02:51:09;388927.00;1.30;670.77;65771.00;0.22;114.45;;;;;21.50;1.00;;;;;;2272259;61;1919;-86
2022/06/29 02:53:36;378794.00;1.26;653.35;72773.00;0.24;126.55;;;;;21.50;1.00;;;;;;2272294;61;1163;-84
2022/06/29 02:56:03;612797.00;2.04;1056.32;120037.00;0.40;208.15;;;;;21.00;1.30;;;;;;2272428;61;1087;-85
2022/06/29 02:58:30;377745.00;1.26;651.55;76630.00;0.26;133.22;;;;;20.50;2.80;;;;;;2272284;61;2051;-85
2022/06/29 03:00:57;647489.00;2.16;1116.29;87858.00;0.29;152.61;;;;;20.30;4.10;;;;;;2272475;61;1551;-85
2022/06/29 03:03:25;508705.00;1.70;876.81;72218.00;0.24;125.59;;;;;20.20;4.90;;;;;;2272323;61;1107;-85
2022/06/29 03:05:52;118565920.00;395.22;67518024.00;75834.00;0.25;131.84;;;;;20.20;5.50;;;;;;2272212;61;950;-85
2022/06/29 03:08:19;426191.00;1.42;734.84;87323.00;0.29;151.69;;;;;20.40;4.30;;;;;;2272116;61;1367;-84
2022/06/29 03:10:46;355818.00;1.19;613.86;81953.00;0.27;142.41;;;;;20.50;4.70;;;;;;2272248;61;2004;-86
2022/06/29 03:13:13;420382.00;1.40;724.85;74129.00;0.25;128.89;;;;;20.70;4.10;;;;;;2272066;61;1881;-85
2022/06/29 03:15:40;316895.00;1.06;546.96;72925.00;0.24;126.81;;;;;20.90;2.90;;;;;;2271963;61;1163;-86
2022/06/29 03:18:07;247563.00;0.83;427.76;70510.00;0.24;122.64;;;;;21.00;3.10;;;;;;2272071;61;1372;-86
2022/06/29 03:20:35;296643.00;0.99;512.15;73791.00;0.25;128.31;;;;;20.90;2.60;;;;;;2272009;61;1016;-85
2022/06/29 03:23:02;308584.00;1.03;532.68;49311.00;0.16;85.99;;;;;20.90;3.30;;;;;;2272312;61;1070;-83
2022/06/29 03:25:29;391115.00;1.30;674.53;68732.00;0.23;119.57;;;;;21.00;3.20;;;;;;2272385;61;1100;-86
2022/06/29 03:27:56;405828.00;1.35;699.82;68195.00;0.23;118.64;;;;;21.10;2.80;;;;;;2272317;61;1380;-85
2022/06/29 03:30:23;577990.00;1.93;996.23;170522.00;0.57;295.17;;;;;21.30;2.00;;;;;;2272365;61;1982;-85
2022/06/29 03:32:50;281204.00;0.94;485.61;78250.00;0.26;136.01;;;;;21.40;1.50;;;;;;2272378;61;1095;-85
2022/06/29 03:35:17;476331.00;1.59;821.08;70813.00;0.24;123.17;;;;;21.80;1.00;;;;;;2271755;61;984;-86
2022/06/29 03:37:45;117174984.00;390.58;65167504.00;76327.00;0.25;132.69;;;;;22.00;1.00;;;;;;2271636;61;1160;-86
2022/06/29 03:40:13;118681800.00;395.61;67716360.00;94921.00;0.32;164.80;;;;;22.10;1.00;;;;;;2271251;61;1325;-85
2022/06/29 03:42:40;404737.00;1.35;697.95;68140.00;0.23;118.55;;;;;22.20;1.00;;;;;;2271439;61;1089;-85
2022/06/29 03:45:07;518473.00;1.73;893.63;111717.00;0.37;193.79;;;;;22.50;1.00;;;;;;2271461;61;1090;-84
2022/06/29 03:47:34;366931.00;1.22;632.96;69752.00;0.23;121.33;;;;;22.50;1.00;;;;;;2271525;61;1052;-85
2022/06/29 03:50:01;519226.00;1.73;894.93;134032.00;0.45;232.28;;;;;22.40;1.00;;;;;;2271826;61;2006;-86
2022/06/29 03:52:28;837298.00;2.79;1446.25;143774.00;0.48;249.08;;;;;22.10;1.00;;;;;;2271557;61;1096;-85
2022/06/29 03:54:56;489844.00;1.63;844.34;89870.00;0.30;156.08;;;;;21.90;1.00;;;;;;2271488;61;1125;-85
2022/06/29 03:57:23;553994.00;1.85;954.84;93201.00;0.31;161.83;;;;;22.10;1.00;;;;;;2271654;61;1159;-85
2022/06/29 03:59:50;357512.00;1.19;616.77;100966.00;0.34;175.24;;;;;22.00;1.00;;;;;;2271740;61;1400;-85
2022/06/29 04:02:17;237494.00;0.79;410.44;70552.00;0.24;122.71;;;;;22.00;1.00;;;;;;2271753;61;1104;-85
2022/06/29 04:04:44;117106024.00;390.35;65052412.00;69281.00;0.23;120.52;;;;;22.30;1.00;;;;;;2272282;61;1086;-86
2022/06/29 04:07:11;194325.00;0.65;336.15;71600.00;0.24;124.53;;;;;22.40;1.00;;;;;;2272225;61;1083;-86
2022/06/29 04:09:37;179541.00;0.60;310.70;74996.00;0.25;130.39;;;;;22.50;1.00;;;;;;2271765;61;1362;-85
2022/06/29 04:12:06;165392.00;0.55;286.33;64808.00;0.22;112.79;;;;;22.40;1.00;;;;;;2271729;61;2006;-86
2022/06/29 04:14:33;424678.00;1.42;732.23;105092.00;0.35;182.36;;;;;22.30;1.00;;;;;;2271964;61;1014;-86
2022/06/29 04:17:00;260261.00;0.87;449.60;65222.00;0.22;113.50;;;;;22.10;1.00;;;;;;2271765;61;1183;-86
2022/06/29 04:19:27;370940.00;1.24;639.85;107540.00;0.36;186.59;;;;;21.90;1.00;;;;;;2271762;61;1300;-86
2022/06/29 04:21:55;649855.00;2.17;1120.39;175779.00;0.59;304.22;;;;;21.90;1.00;;;;;;2271698;61;1112;-85
2022/06/29 04:24:22;234342.00;0.78;405.02;65480.00;0.22;113.95;;;;;21.90;1.00;;;;;;2271752;61;1156;-86
2022/06/29 04:26:49;577418.00;1.92;995.24;108512.00;0.36;188.26;;;;;22.00;1.00;;;;;;2272193;61;1629;-87
2022/06/29 04:29:17;203378.00;0.68;351.74;70549.00;0.24;122.71;;;;;21.80;1.00;;;;;;2272331;61;1388;-85
2022/06/29 04:31:44;186502.00;0.62;322.69;71527.00;0.24;124.40;;;;;21.60;1.00;;;;;;2272316;61;2002;-86
2022/06/29 04:34:11;354740.00;1.18;612.01;73008.00;0.24;126.96;;;;;21.40;1.30;;;;;;2272219;61;1190;-85
2022/06/29 04:36:38;246760.00;0.82;426.38;67770.00;0.23;117.91;;;;;21.40;1.10;;;;;;2272763;61;1017;-85
2022/06/29 04:39:05;271366.00;0.90;468.69;75057.00;0.25;130.50;;;;;21.20;1.10;;;;;;2272493;61;1388;-85
2022/06/29 04:41:32;117078880.00;390.26;65007144.00;61037.00;0.20;106.27;;;;;21.20;1.40;;;;;;2272520;61;1171;-86
2022/06/29 04:43:58;183119.00;0.61;316.86;75804.00;0.25;131.79;;;;;21.10;1.70;;;;;;2272220;61;1061;-85
2022/06/29 04:46:27;199745.00;0.67;345.48;71731.00;0.24;124.75;;;;;21.10;2.20;;;;;;2272140;61;1138;-86
2022/06/29 04:48:56;191020.00;0.64;330.46;66066.00;0.22;114.96;;;;;21.50;1.50;;;;;;2272142;61;1374;-85
2022/06/29 04:51:24;175280.00;0.58;303.36;67391.00;0.22;117.25;;;;;21.80;1.00;;;;;;2272209;61;1916;-85
2022/06/29 04:53:54;223962.00;0.75;387.16;69080.00;0.23;120.17;;;;;22.00;1.00;;;;;;2272430;61;1143;-85
2022/06/29 04:56:22;583902.00;1.95;1006.43;126641.00;0.42;219.54;;;;;22.00;1.00;;;;;;2272484;61;1137;-86
2022/06/29 04:58:51;1001040.00;3.34;1734.31;116358.00;0.39;201.80;;;;;22.40;1.00;;;;;;2272382;61;1376;-85
2022/06/29 05:01:18;767184.00;2.56;1323.95;79310.00;0.26;137.85;;;;;22.40;1.00;;;;;;2272395;61;1077;-84
2022/06/29 05:03:47;747213.00;2.49;1289.21;73366.00;0.24;127.58;;;;;22.30;1.00;;;;;;2272392;61;1094;-85
2022/06/29 05:06:14;735828.00;2.45;1269.43;100809.00;0.34;174.97;;;;;22.40;1.00;;;;;;2272440;61;1146;-86
2022/06/29 05:08:41;664889.00;2.22;1146.40;82606.00;0.28;143.54;;;;;22.70;1.00;;;;;;2272456;61;1370;-86
2022/06/29 05:11:08;117686272.00;392.29;66025052.00;86778.00;0.29;150.74;;;;;22.80;1.00;;;;;;2272484;61;2000;-85
2022/06/29 05:13:35;552129.00;1.84;951.63;127141.00;0.42;220.40;;;;;23.00;1.00;;;;;;2272400;61;1709;-85
2022/06/29 05:16:02;538020.00;1.79;927.31;71452.00;0.24;124.27;;;;;23.00;1.00;;;;;;2272301;61;1094;-85
2022/06/29 05:18:29;643962.00;2.15;1110.19;156770.00;0.52;271.47;;;;;23.00;1.00;;;;;;2272149;61;1390;-85
2022/06/29 05:20:57;362486.00;1.21;625.32;95873.00;0.32;166.45;;;;;22.90;1.00;;;;;;2272275;61;1164;-85
2022/06/29 05:23:25;382116.00;1.27;659.06;75867.00;0.25;131.90;;;;;22.80;1.00;;;;;;2272132;61;1162;-84
2022/06/29 05:25:52;223974.00;0.75;387.18;65325.00;0.22;113.68;;;;;22.80;1.00;;;;;;2272385;61;1182;-85
2022/06/29 05:28:19;366439.00;1.22;632.12;125170.00;0.42;217.00;;;;;23.10;1.00;;;;;;2272309;61;1434;-85
2022/06/29 05:30:46;241716.00;0.81;417.70;65502.00;0.22;113.99;;;;;23.30;1.00;;;;;;2272289;61;2000;-86
2022/06/29 05:33:12;193198.00;0.64;334.21;76297.00;0.25;132.64;;;;;23.40;1.00;;;;;;2272212;61;1132;-86
2022/06/29 05:35:39;185512.00;0.62;320.98;65307.00;0.22;113.65;;;;;23.30;1.00;;;;;;2272389;61;1683;-86
2022/06/29 05:38:08;170293.00;0.57;294.77;70045.00;0.23;121.84;;;;;23.20;1.00;;;;;;2272233;61;1322;-84
2022/06/29 05:40:35;227399.00;0.76;393.07;58676.00;0.20;102.19;;;;;23.30;1.00;;;;;;2272458;61;1149;-84
2022/06/29 05:43:03;194606.00;0.65;336.64;76095.00;0.25;132.29;;;;;23.40;1.00;;;;;;2272401;61;1136;-85
2022/06/29 05:45:30;164400.00;0.55;284.62;66713.00;0.22;116.08;;;;;23.80;1.00;;;;;;2272715;61;1094;-86
2022/06/29 05:47:57;182312.00;0.61;315.47;69889.00;0.23;121.57;;;;;24.30;1.00;;;;;;2272453;61;1417;-85
2022/06/29 05:50:25;166467.00;0.55;288.18;65014.00;0.22;113.14;;;;;24.70;1.00;;;;;;2272688;61;1108;-84
2022/06/29 05:52:52;280547.00;0.94;484.48;69587.00;0.23;121.05;;;;;24.80;1.00;;;;;;2272526;61;1936;-85
2022/06/29 05:55:20;165596.00;0.55;286.68;66210.00;0.22;115.21;;;;;24.40;1.00;;;;;;2272694;61;1110;-84
2022/06/29 05:57:47;402222.00;1.34;693.63;160812.00;0.54;278.44;;;;;24.30;1.00;;;;;;2272425;61;1023;-84
2022/06/29 06:00:15;288196.00;0.96;497.63;70043.00;0.23;121.83;;;;;23.70;1.00;;;;;;2272304;61;1438;-85
2022/06/29 06:02:41;284949.00;0.95;492.05;67378.00;0.22;117.23;;;;;23.40;1.00;;;;;;2272230;61;1206;-86
2022/06/29 06:05:09;208277.00;0.69;360.17;66557.00;0.22;115.81;;;;;23.50;1.00;;;;;;2272329;61;1132;-84
2022/06/29 06:07:36;180709.00;0.60;312.71;71004.00;0.24;123.50;;;;;23.60;1.00;;;;;;2272074;61;1010;-83
2022/06/29 06:10:04;258923.00;0.86;447.30;69468.00;0.23;120.84;;;;;23.90;1.00;;;;;;2272243;61;1297;-84
2022/06/29 06:12:33;255889.00;0.85;442.08;63753.00;0.21;110.96;;;;;24.00;1.00;;;;;;2272000;61;1924;-83
2022/06/29 06:15:01;188615.00;0.63;326.32;64733.00;0.22;112.66;;;;;24.10;1.00;;;;;;2272217;61;1071;-84
2022/06/29 06:17:28;209968.00;0.70;363.08;78180.00;0.26;135.89;;;;;24.20;1.00;;;;;;2272103;61;1125;-85
2022/06/29 06:19:56;226891.00;0.76;392.20;68635.00;0.23;119.40;;;;;24.20;1.00;;;;;;2272268;61;1367;-84
2022/06/29 06:22:23;233227.00;0.78;403.10;65748.00;0.22;114.41;;;;;24.30;1.00;;;;;;2272410;61;1132;-84
2022/06/29 06:24:50;183541.00;0.61;317.59;68066.00;0.23;118.42;;;;;24.50;1.00;;;;;;2272103;61;1122;-85
2022/06/29 06:27:17;264387.00;0.88;456.69;90882.00;0.30;157.83;;;;;24.70;1.00;;;;;;2272323;61;1104;-86
2022/06/29 06:29:45;246849.00;0.82;426.53;85373.00;0.28;148.32;;;;;24.70;1.00;;;;;;2272449;61;1381;-84
2022/06/29 06:32:12;195795.00;0.65;338.69;64500.00;0.22;112.26;;;;;24.90;1.00;;;;;;2272375;61;2022;-84
2022/06/29 06:34:39;494112.00;1.65;851.69;155868.00;0.52;269.92;;;;;25.00;1.00;;;;;;2272438;61;1145;-85
2022/06/29 06:37:06;175777.00;0.59;304.22;70039.00;0.23;121.83;;;;;25.10;1.00;;;;;;2272444;61;1044;-85
2022/06/29 06:39:33;342185.00;1.14;590.43;114530.00;0.38;198.65;;;;;25.10;1.00;;;;;;2272288;61;1283;-84
2022/06/29 06:41:59;187552.00;0.63;324.49;71944.00;0.24;125.12;;;;;25.10;1.00;;;;;;2272339;61;1092;-85
2022/06/29 06:44:26;109280.00;0.36;189.59;0.00;0.00;0.62;;;;;25.00;1.00;;;;;;2272464;61;2225;-84
2022/06/29 06:46:54;0.00;0.00;0.62;0.00;0.00;0.62;;;;;25.30;1.00;;;;;;2272514;61;1126;-85
2022/06/29 06:49:23;25728.00;0.09;45.19;0.00;0.00;0.62;;;;;26.00;1.00;;;;;;2272323;61;1672;-85
2022/06/29 06:51:50;40733.00;0.14;71.16;0.00;0.00;0.62;;;;;27.10;1.00;;;;;;2272312;61;1911;-86
2022/06/29 06:54:17;0.00;0.00;0.62;0.00;0.00;0.62;;;;;29.20;1.00;;;;;;2272392;61;1117;-85
2022/06/29 06:56:44;148860.00;0.50;257.84;21137.00;0.07;37.24;;;;;30.00;1.00;;;;;;2272334;61;1102;-86
2022/06/29 06:59:11;0.00;0.00;0.62;0.00;0.00;0.62;;;;;30.40;1.00;;;;;;2272354;61;1403;-86
2022/06/29 07:01:38;154212.00;0.51;267.07;0.00;0.00;0.62;;;;;31.00;1.00;;;;;;2272455;61;1093;-86
2022/06/29 07:04:07;69550.00;0.23;120.98;0.00;0.00;0.62;;;;;31.80;1.00;;;;;;2272228;61;1106;-85
2022/06/29 07:06:34;0.00;0.00;0.62;0.00;0.00;0.62;;;;;32.50;1.00;;;;;;2272449;61;1103;-86
2022/06/29 07:09:00;0.00;0.00;0.62;0.00;0.00;0.62;;;;;33.60;1.00;;;;;;2271978;61;1411;-86
2022/06/29 07:11:27;297767.00;0.99;514.08;104782.00;0.35;181.83;;;;;35.00;1.00;;;;;;2271517;61;2000;-85
2022/06/29 07:13:54;0.00;0.00;0.62;0.00;0.00;0.62;;;;;35.60;1.00;;;;;;2271900;61;1571;-86
2022/06/29 07:16:21;0.00;0.00;0.62;0.00;0.00;0.62;;;;;35.40;1.00;;;;;;2272359;61;1090;-85
2022/06/29 07:18:49;0.00;0.00;0.62;0.00;0.00;0.62;;;;;35.00;1.00;;;;;;2272133;61;1395;-86
2022/06/29 07:21:17;0.00;0.00;0.62;0.00;0.00;0.62;;;;;34.40;1.00;;;;;;2272161;61;1141;-86
2022/06/29 07:23:44;42576.00;0.14;74.35;0.00;0.00;0.62;;;;;33.90;1.00;;;;;;2272311;61;1050;-86
2022/06/29 07:26:11;40547.00;0.14;70.83;0.00;0.00;0.62;;;;;33.40;1.00;;;;;;2272293;61;1110;-85
2022/06/29 07:28:39;112987.00;0.38;195.98;48130.00;0.16;83.95;;;;;33.10;1.00;;;;;;2272220;61;1301;-86
2022/06/29 07:31:07;176039.00;0.59;304.67;106800.00;0.36;185.31;;;;;32.70;1.00;;;;;;2272338;61;1919;-86
2022/06/29 07:33:34;0.00;0.00;0.62;0.00;0.00;0.62;;;;;31.70;1.00;;;;;;2272331;61;1078;-86
2022/06/29 07:36:01;54047.00;0.18;94.18;0.00;0.00;0.62;;;;;31.30;1.00;;;;;;2272251;61;1290;-86
2022/06/29 07:38:29;86461.00;0.29;150.20;18482.00;0.06;32.64;;;;;31.30;1.00;;;;;;2272143;61;1379;-85
2022/06/29 07:40:58;0.00;0.00;0.62;0.00;0.00;0.62;;;;;32.10;1.00;;;;;;2272376;61;1129;-86
2022/06/29 07:43:25;0.00;0.00;0.62;0.00;0.00;0.62;;;;;32.50;1.00;;;;;;2272380;61;1143;-86
2022/06/29 07:45:52;22725.00;0.08;39.99;0.00;0.00;0.62;;;;;32.00;1.00;;;;;;2272334;61;1159;-86
2022/06/29 07:48:19;0.00;0.00;0.62;0.00;0.00;0.62;;;;;32.30;1.00;;;;;;2272201;61;1308;-85
2022/06/29 07:50:46;0.00;0.00;0.62;0.00;0.00;0.62;;;;;33.70;1.00;;;;;;2272137;61;1075;-85
2022/06/29 07:53:13;0.00;0.00;0.62;0.00;0.00;0.62;;;;;34.10;1.00;;;;;;2272144;61;1930;-85
2022/06/29 07:55:44;91602.00;0.31;159.07;0.00;0.00;0.62;;;;;33.50;1.00;;;;;;2271807;61;928;-86
2022/06/29 07:58:11;165849.00;0.55;287.12;32965.00;0.11;57.71;;;;;33.70;1.00;;;;;;2272183;61;1453;-85
2022/06/29 08:00:39;0.00;0.00;0.62;0.00;0.00;0.62;;;;;33.50;1.00;;;;;;2272095;61;1068;-85
2022/06/29 08:03:05;30607.00;0.10;53.63;0.00;0.00;0.62;;;;;32.80;1.00;;;;;;2272216;61;1004;-84
2022/06/29 08:05:32;0.00;0.00;0.62;0.00;0.00;0.62;;;;;32.80;1.00;;;;;;2272141;61;1123;-85
2022/06/29 08:07:59;0.00;0.00;0.62;0.00;0.00;0.62;;;;;33.10;1.00;;;;;;2272199;61;1489;-84
2022/06/29 08:10:27;149209.00;0.50;258.44;36896.00;0.12;64.52;;;;;32.90;1.00;;;;;;2272161;61;1140;-86
2022/06/29 08:12:55;250906.00;0.84;433.51;95336.00;0.32;165.52;;;;;32.50;1.00;;;;;;2272092;61;2002;-85
2022/06/29 08:15:22;54278.00;0.18;94.58;0.00;0.00;0.62;;;;;31.80;1.00;;;;;;2272213;61;992;-85
2022/06/29 08:17:49;0.00;0.00;0.62;0.00;0.00;0.62;;;;;31.90;1.00;;;;;;2272311;61;1121;-85
2022/06/29 08:20:16;107807.00;0.36;187.05;0.00;0.00;0.62;;;;;32.30;1.00;;;;;;2272212;61;1296;-85
2022/06/29 08:22:43;0.00;0.00;0.62;0.00;0.00;0.62;;;;;32.20;1.00;;;;;;2272084;61;1159;-86
2022/06/29 08:25:11;0.00;0.00;0.62;0.00;0.00;0.62;;;;;32.10;1.00;;;;;;2272100;61;1066;-86
2022/06/29 08:27:39;0.00;0.00;0.62;0.00;0.00;0.62;;;;;32.10;1.00;;;;;;2272127;61;1903;-88
2022/06/29 08:30:10;106188.00;0.35;184.25;0.00;0.00;0.62;;;;;32.00;1.00;;;;;;2272222;61;1384;-87
2022/06/29 08:32:39;0.00;0.00;0.62;0.00;0.00;0.62;;;;;32.00;1.00;;;;;;2272081;61;2004;-88
2022/06/29 08:35:07;12342.00;0.04;22.01;0.00;0.00;0.62;;;;;31.80;1.00;;;;;;2272172;61;1108;-87
2022/06/29 08:37:34;16040.00;0.05;28.41;0.00;0.00;0.62;;;;;32.50;1.00;;;;;;2272130;61;1098;-85
2022/06/29 08:40:00;0.00;0.00;0.62;0.00;0.00;0.62;;;;;33.50;1.00;;;;;;2271865;61;1294;-86
2022/06/29 08:42:27;154474.00;0.51;267.52;0.00;0.00;0.62;;;;;34.10;1.00;;;;;;2272046;61;1045;-85
2022/06/29 08:44:55;0.00;0.00;0.62;0.00;0.00;0.62;;;;;34.90;1.00;;;;;;2272033;61;1127;-85
2022/06/29 08:47:24;0.00;0.00;0.62;0.00;0.00;0.62;;;;;35.00;1.00;;;;;;2271992;61;1093;-86
2022/06/29 08:49:50;0.00;0.00;0.62;0.00;0.00;0.62;;;;;34.80;1.00;;;;;;2272141;61;1379;-86
2022/06/29 08:52:19;0.00;0.00;0.62;0.00;0.00;0.62;;;;;35.60;1.00;;;;;;2271755;61;1992;-85
2022/06/29 08:54:48;0.00;0.00;0.62;0.00;0.00;0.62;;;;;35.80;1.00;;;;;;2272073;61;1122;-84
2022/06/29 08:57:16;2143.00;0.01;4.33;0.00;0.00;0.62;;;;;35.10;1.00;;;;;;2272033;61;1120;-86
2022/06/29 08:59:43;106751.00;0.36;185.22;0.00;0.00;0.62;;;;;34.40;1.00;;;;;;2272016;61;1292;-85
2022/06/29 09:02:12;0.00;0.00;0.62;0.00;0.00;0.62;;;;;33.70;1.00;;;;;;2271840;61;974;-87
2022/06/29 09:04:41;0.00;0.00;0.62;0.00;0.00;0.62;;;;;34.00;1.00;;;;;;2271644;61;1080;-84
2022/06/29 09:07:07;0.00;0.00;0.62;0.00;0.00;0.62;;;;;33.90;1.00;;;;;;2271863;61;1088;-85
2022/06/29 09:09:59;47152.00;0.16;82.26;0.00;0.00;0.62;;;;;34.00;1.00;;;;;;2272023;61;1276;-86
2022/06/29 09:12:26;167906.00;0.56;290.66;60904.00;0.20;106.04;;;;;33.60;1.00;;;;;;2271972;61;1984;-85
2022/06/29 09:14:53;250383.00;0.83;432.61;55779.00;0.19;97.18;;;;;32.80;1.00;;;;;;2272547;61;1138;-86
2022/06/29 09:17:20;237005.00;0.79;409.60;63310.00;0.21;110.20;;;;;32.60;1.00;;;;;;2272532;61;1088;-84
2022/06/29 09:19:49;311673.00;1.04;537.99;60294.00;0.20;104.99;;;;;32.70;1.00;;;;;;2272602;61;2059;-84
2022/06/29 09:22:17;189627.00;0.63;328.07;64560.00;0.22;112.36;;;;;33.20;1.00;;;;;;2272630;61;1139;-85
2022/06/29 09:24:43;109631.00;0.37;190.19;44567.00;0.15;77.79;;;;;33.50;1.00;;;;;;2272506;61;1095;-85
2022/06/29 09:27:12;0.00;0.00;0.62;0.00;0.00;0.62;;;;;33.90;1.00;;;;;;2272665;61;1073;-83
2022/06/29 09:29:42;0.00;0.00;0.62;0.00;0.00;0.62;;;;;34.20;1.00;;;;;;2272659;61;1336;-86
2022/06/29 09:32:11;0.00;0.00;0.62;0.00;0.00;0.62;;;;;34.10;1.00;;;;;;2272598;61;1923;-85
2022/06/29 09:34:41;0.00;0.00;0.62;0.00;0.00;0.62;;;;;33.60;1.00;;;;;;2272661;61;1110;-86
2022/06/29 09:37:12;0.00;0.00;0.62;0.00;0.00;0.62;;;;;33.00;1.00;;;;;;2272642;61;1195;-86
2022/06/29 09:39:40;0.00;0.00;0.62;0.00;0.00;0.62;;;;;32.90;1.00;;;;;;2272641;61;1367;-85
2022/06/29 09:42:10;0.00;0.00;0.62;0.00;0.00;0.62;;;;;32.80;1.00;;;;;;2272662;61;1100;-85
2022/06/29 09:44:37;132181.00;0.44;229.09;32976.00;0.11;57.73;;;;;32.70;1.00;;;;;;2272561;61;1134;-86